Lake Kitchawan, New York
Current Conditions -  °F | °C
As of 8:53 AM on Sunday 25 Jan 2015 (Local Time) from KDXR Reporting Station
Broken Clouds Broken Clouds  
Wind Chill: 29°   Ceiling: 6000
Heat Index: 35°   Visibility: 10mi
Dew Point: 24°   Wind: 7mph
Humidity: 64%   Direction: 240°WSW
Pressure: 29.65"   Gusts: NA
Location:  41.2554°N, 73.5385°W
Report Text: KDXR 251353Z 24006KT 10SM SCT047 BKN060 02/M04 A2965 RMK AO2 SLP043 T00171044
Loading
Personal Weather Stations






























Interactive Weather Map New forecast layout! Learn more

10-Day Weather Forecast

Advertisements
Track Severe Weather on mobile